Time;durP1;ratioP1;P1;durP2;ratioP2;P2;SDS_P1;SDS_P2;PMS_P1;PMS_P2;Temp;Humidity;BMP_temperature;BMP_pressure;BME280_temperature;BME280_humidity;BME280_pressure;Samples;Min_cycle;Max_cycle;Signal;HPM_P1;HPM_P2
2022/05/20 00:01:33;;;;;;;10.18;4.88;;;;;;;9.33;74.59;99383.47;5149579;27;20030;-41
2022/05/20 00:03:59;;;;;;;12.60;4.25;;;;;;;9.30;74.53;99372.34;5146596;27;20054;-41
2022/05/20 00:06:26;;;;;;;7.82;3.90;;;;;;;9.33;74.72;99377.41;5134427;27;20082;-40
2022/05/20 00:08:53;;;;;;;9.27;3.72;;;;;;;9.20;74.05;99358.84;5141852;27;20474;-40
2022/05/20 00:11:20;;;;;;;6.82;3.53;;;;;;;9.37;73.11;99385.97;5149454;27;20041;-40
2022/05/20 00:13:46;;;;;;;8.55;2.72;;;;;;;9.34;72.71;99384.31;5141596;27;20035;-40
2022/05/20 00:16:13;;;;;;;4.22;2.65;;;;;;;9.33;71.59;99391.25;5112387;28;20031;-40
2022/05/20 00:18:39;;;;;;;5.70;2.50;;;;;;;9.33;70.17;99395.59;5095521;27;20075;-40
2022/05/20 00:21:05;;;;;;;6.20;2.72;;;;;;;9.29;69.65;99394.84;5147640;27;20433;-40
2022/05/20 00:23:32;;;;;;;5.65;2.50;;;;;;;9.27;69.25;99398.38;5129636;27;20038;-39
2022/05/20 00:25:59;;;;;;;3.55;2.15;;;;;;;9.18;68.86;99391.75;5152733;27;20034;-40
2022/05/20 00:28:27;;;;;;;4.72;2.30;;;;;;;9.19;67.72;99398.66;5150812;27;20045;-39
2022/05/20 00:31:04;;;;;;;5.40;2.40;;;;;;;9.00;67.48;99387.19;5117487;28;20518;-40
2022/05/20 00:33:30;;;;;;;6.15;2.03;;;;;;;9.11;66.91;99410.16;5127643;28;20043;-40
2022/05/20 00:35:56;;;;;;;4.15;2.08;;;;;;;9.12;66.81;99422.22;5132053;27;20035;-40
2022/05/20 00:38:22;;;;;;;6.00;1.77;;;;;;;9.11;66.03;99428.31;5122989;27;20042;-40
2022/05/20 00:40:50;;;;;;;5.35;2.13;;;;;;;9.09;65.36;99423.19;5148607;27;20402;-40
2022/05/20 00:43:22;;;;;;;4.05;1.50;;;;;;;9.08;64.84;99423.25;5128447;27;20095;-40
2022/05/20 00:45:48;;;;;;;2.95;2.05;;;;;;;8.96;64.38;99418.44;5150243;27;20413;-42
2022/05/20 00:48:14;;;;;;;3.13;1.55;;;;;;;8.95;63.79;99427.13;5137060;27;20160;-40
2022/05/20 00:50:43;;;;;;;2.53;1.48;;;;;;;8.86;63.41;99421.31;5155842;27;20038;-41
2022/05/20 00:53:09;;;;;;;8.50;1.50;;;;;;;8.63;63.17;99410.84;5127873;27;20589;-40
2022/05/20 00:55:35;;;;;;;5.38;1.40;;;;;;;8.57;63.36;99405.84;5117486;27;20121;-39
2022/05/20 00:58:08;;;;;;;3.00;1.63;;;;;;;8.71;62.62;99442.53;5137321;27;20410;-40
2022/05/20 01:00:41;;;;;;;5.35;1.50;;;;;;;8.72;62.51;99436.47;5123567;27;20051;-41
2022/05/20 01:03:09;;;;;;;2.65;1.38;;;;;;;8.75;62.33;99449.31;5144378;27;20062;-40
2022/05/20 01:05:42;;;;;;;1.75;1.30;;;;;;;8.84;62.26;99448.22;5153660;27;20037;-40
2022/05/20 01:08:12;;;;;;;1.35;0.90;;;;;;;8.87;61.68;99458.47;5155655;27;20129;-40
2022/05/20 01:10:38;;;;;;;4.45;1.23;;;;;;;8.92;60.76;99460.03;5156416;27;20027;-40
2022/05/20 01:13:04;;;;;;;2.63;1.20;;;;;;;8.87;60.37;99448.09;5132081;27;20069;-40
2022/05/20 01:15:30;;;;;;;2.67;1.38;;;;;;;8.98;60.04;99460.72;5145509;27;20030;-40
2022/05/20 01:17:57;;;;;;;4.10;1.40;;;;;;;8.97;59.91;99462.47;5155372;27;20129;-40
2022/05/20 01:20:29;;;;;;;3.08;1.13;;;;;;;8.97;59.49;99472.84;5123500;27;20070;-40
2022/05/20 01:22:58;;;;;;;1.40;0.90;;;;;;;8.96;59.13;99470.28;5133993;27;20057;-40
2022/05/20 01:25:26;;;;;;;1.35;1.08;;;;;;;8.92;59.35;99475.59;5155448;27;20042;-41
2022/05/20 01:27:52;;;;;;;1.58;1.00;;;;;;;8.80;59.10;99465.56;5127987;27;20067;-40
2022/05/20 01:30:21;;;;;;;1.35;1.00;;;;;;;8.78;59.35;99476.91;5134945;27;20062;-41
2022/05/20 01:32:47;;;;;;;2.10;1.20;;;;;;;8.76;59.01;99484.72;5154110;27;20042;-41
2022/05/20 01:35:43;;;;;;;2.25;1.30;;;;;;;8.76;59.25;99489.91;5140027;27;20039;-40
2022/05/20 01:38:11;;;;;;;31.55;10.23;;;;;;;8.77;58.69;99485.56;5121884;27;20051;-41
2022/05/20 01:40:55;;;;;;;2.75;1.10;;;;;;;8.80;58.49;99488.06;5154192;27;20091;-40
2022/05/20 01:43:24;;;;;;;4.70;1.40;;;;;;;8.80;58.10;99491.50;5124449;27;20091;-40
2022/05/20 01:46:00;;;;;;;2.83;1.17;;;;;;;8.82;57.69;99496.66;5127385;27;20045;-39
2022/05/20 01:49:00;;;;;;;3.60;1.10;;;;;;;8.78;57.26;99487.28;5136476;27;20046;-40
2022/05/20 01:51:30;;;;;;;2.63;1.15;;;;;;;8.82;57.43;99492.31;5087920;27;20111;-40
2022/05/20 01:54:00;;;;;;;3.42;1.15;;;;;;;8.82;57.40;99496.66;5119096;27;20073;-40
2022/05/20 01:56:30;;;;;;;1.40;0.95;;;;;;;8.84;56.81;99495.72;5114872;27;20311;-40
2022/05/20 01:59:02;;;;;;;1.75;0.80;;;;;;;8.87;56.56;99502.53;5135681;27;20545;-40
2022/05/20 02:01:36;;;;;;;2.80;0.93;;;;;;;8.88;56.21;99506.84;5134371;27;20038;-40
2022/05/20 02:04:10;;;;;;;2.78;0.95;;;;;;;8.91;56.47;99507.59;5131409;27;20430;-40
2022/05/20 02:06:41;;;;;;;2.33;1.00;;;;;;;8.93;55.71;99511.00;5152792;27;20422;-40
2022/05/20 02:09:11;;;;;;;1.48;1.00;;;;;;;8.88;55.62;99499.06;5132741;27;20035;-41
2022/05/20 02:11:49;;;;;;;2.67;1.10;;;;;;;8.93;55.88;99503.22;5136539;27;20063;-43
2022/05/20 02:14:27;;;;;;;2.13;1.15;;;;;;;8.97;55.98;99518.66;5132190;27;20031;-41
2022/05/20 02:17:00;;;;;;;5.13;1.20;;;;;;;8.96;55.56;99523.00;5134363;27;20426;-40
2022/05/20 02:19:40;;;;;;;2.42;1.10;;;;;;;8.97;55.98;99522.09;5133101;27;20070;-40
2022/05/20 02:22:11;;;;;;;1.67;1.00;;;;;;;8.84;55.14;99490.53;5134071;27;20583;-39
2022/05/20 02:24:38;;;;;;;2.45;1.10;;;;;;;9.02;55.04;99525.41;5153044;27;20074;-40
2022/05/20 02:27:07;;;;;;;2.50;1.00;;;;;;;9.03;55.10;99527.09;5119643;27;20084;-40
2022/05/20 02:29:39;;;;;;;2.28;1.00;;;;;;;9.01;55.37;99528.88;5118931;27;20441;-40
2022/05/20 02:32:10;;;;;;;1.50;1.00;;;;;;;8.96;55.12;99533.38;5124841;27;20057;-40
2022/05/20 02:34:36;;;;;;;2.25;0.93;;;;;;;8.93;55.34;99536.91;5148949;27;20038;-40
2022/05/20 02:37:22;;;;;;;4.70;1.20;;;;;;;8.80;55.57;99524.34;5115622;27;20054;-41
2022/05/20 02:39:49;;;;;;;4.53;1.23;;;;;;;8.72;55.46;99516.81;5139889;27;20525;-39
2022/05/20 02:42:14;;;;;;;1.75;0.90;;;;;;;8.72;55.36;99531.50;5134127;27;20047;-40
2022/05/20 02:44:40;;;;;;;3.10;1.10;;;;;;;8.66;55.11;99536.88;5141329;27;20134;-40
2022/05/20 02:47:06;;;;;;;2.92;1.20;;;;;;;8.58;55.31;99534.50;5137486;27;20078;-40
2022/05/20 02:49:32;;;;;;;2.63;1.17;;;;;;;8.55;55.46;99536.31;5121947;27;20501;-40
2022/05/20 02:51:58;;;;;;;4.28;1.20;;;;;;;8.50;55.32;99537.31;5136861;27;20039;-40
2022/05/20 02:54:24;;;;;;;4.00;1.00;;;;;;;8.40;55.11;99533.28;5151876;27;20426;-41
2022/05/20 02:56:50;;;;;;;1.80;1.20;;;;;;;8.44;55.58;99544.41;5153924;27;20049;-40
2022/05/20 03:04:45;;;;;;;3.40;0.90;;;;;;;8.37;55.11;99548.88;5140622;27;20196;-41
2022/05/20 03:07:13;;;;;;;2.35;1.00;;;;;;;8.34;55.48;99551.56;5133040;27;20530;-41
2022/05/20 03:09:40;;;;;;;3.30;1.10;;;;;;;8.32;55.17;99555.94;5140474;27;20030;-40
2022/05/20 03:12:07;;;;;;;3.05;1.02;;;;;;;8.16;54.75;99530.50;5135627;27;20053;-40
2022/05/20 03:14:34;;;;;;;3.72;1.40;;;;;;;8.31;55.19;99563.78;5144079;27;20122;-41
2022/05/20 03:17:01;;;;;;;1.50;1.05;;;;;;;8.31;54.98;99571.53;5152335;27;20506;-39
2022/05/20 03:19:33;;;;;;;3.13;1.25;;;;;;;8.31;55.39;99571.53;5134704;27;20127;-40
2022/05/20 03:22:00;;;;;;;3.10;1.20;;;;;;;8.28;55.35;99564.66;5153751;27;20050;-39
2022/05/20 03:24:26;;;;;;;3.17;1.00;;;;;;;8.27;55.48;99556.94;5147063;27;20031;-42
2022/05/20 03:26:52;;;;;;;1.50;1.08;;;;;;;8.27;55.59;99568.13;5131735;27;20043;-40
2022/05/20 03:29:18;;;;;;;4.30;1.10;;;;;;;8.22;55.54;99562.22;5143960;27;20052;-40
2022/05/20 03:31:45;;;;;;;3.83;1.30;;;;;;;8.14;55.43;99553.81;5133240;27;20046;-41
2022/05/20 03:34:11;;;;;;;1.50;0.80;;;;;;;8.24;55.37;99577.72;5134191;27;20038;-39
2022/05/20 03:36:43;;;;;;;1.42;1.10;;;;;;;8.12;55.16;99563.38;5141414;27;20042;-40
2022/05/20 03:39:10;;;;;;;1.52;1.00;;;;;;;8.26;55.26;99581.16;5133289;27;20418;-40
2022/05/20 03:41:37;;;;;;;2.65;1.30;;;;;;;8.13;55.44;99570.25;5134107;27;20038;-40
2022/05/20 03:44:04;;;;;;;5.93;2.83;;;;;;;8.24;55.51;99588.94;5134863;27;20046;-41
2022/05/20 03:46:31;;;;;;;2.83;1.00;;;;;;;8.26;55.50;99594.94;5144801;27;20050;-40
2022/05/20 03:49:00;;;;;;;3.60;1.10;;;;;;;8.27;55.48;99604.38;5152444;27;20092;-42
2022/05/20 03:51:28;;;;;;;7.10;1.20;;;;;;;8.31;55.54;99606.06;5152734;27;20039;-40
2022/05/20 03:53:53;;;;;;;4.13;1.20;;;;;;;8.34;55.37;99605.13;5140821;27;20092;-39
2022/05/20 03:56:19;;;;;;;4.40;1.25;;;;;;;8.37;55.81;99616.25;5134409;27;20517;-39
2022/05/20 03:58:45;;;;;;;3.30;1.10;;;;;;;8.39;55.61;99609.28;5134631;27;20081;-40
2022/05/20 04:03:56;;;;;;;5.15;1.45;;;;;;;8.54;55.55;99608.03;5141644;27;20467;-40
2022/05/20 04:06:22;;;;;;;3.40;1.30;;;;;;;8.75;55.61;99610.03;5148009;27;20129;-40
2022/05/20 04:08:48;;;;;;;1.77;1.00;;;;;;;9.00;54.76;99617.97;5142625;27;20131;-40
2022/05/20 04:11:14;;;;;;;2.65;1.40;;;;;;;9.16;54.68;99618.38;5148217;27;20117;-41
2022/05/20 04:13:41;;;;;;;5.90;1.00;;;;;;;9.20;54.10;99613.03;5141828;27;20042;-39
2022/05/20 04:16:12;;;;;;;5.78;1.10;;;;;;;9.26;54.23;99628.41;5143158;27;20131;-40
2022/05/20 04:18:38;;;;;;;1.98;1.10;;;;;;;9.19;54.45;99628.63;5148596;27;20042;-41
2022/05/20 04:21:04;;;;;;;0.93;0.80;;;;;;;9.11;55.01;99633.19;5131997;27;20050;-40
2022/05/20 04:23:31;;;;;;;3.30;1.10;;;;;;;9.08;54.65;99626.38;5116056;27;20073;-42
2022/05/20 04:25:57;;;;;;;2.10;1.38;;;;;;;9.04;54.52;99636.88;5152652;27;20509;-39
2022/05/20 04:28:22;;;;;;;1.23;1.00;;;;;;;9.02;54.08;99646.44;5131436;27;20149;-40
2022/05/20 04:30:50;;;;;;;1.88;1.02;;;;;;;8.93;53.90;99637.19;5150600;27;20561;-40
2022/05/20 04:33:17;;;;;;;1.92;1.10;;;;;;;8.95;53.26;99644.91;5151878;27;20035;-40
2022/05/20 04:35:43;;;;;;;5.95;1.67;;;;;;;8.92;53.27;99641.50;5132001;27;20558;-41
2022/05/20 04:38:09;;;;;;;2.63;1.15;;;;;;;8.91;53.59;99647.59;5131438;27;20039;-41
2022/05/20 04:40:35;;;;;;;5.30;1.05;;;;;;;8.93;53.77;99645.81;5144495;27;20345;-41
2022/05/20 04:48:30;;;;;;;3.17;0.80;;;;;;;9.07;53.21;99647.16;5152328;27;20125;-41
2022/05/20 04:50:56;;;;;;;3.05;1.02;;;;;;;9.11;53.19;99647.00;5146072;27;20122;-40
2022/05/20 04:56:06;;;;;;;1.80;1.00;;;;;;;9.17;52.92;99649.44;5139046;27;20513;-40
2022/05/20 04:58:32;;;;;;;2.97;0.95;;;;;;;9.20;52.33;99643.31;5152086;27;20045;-40
2022/05/20 05:00:58;;;;;;;5.53;1.40;;;;;;;9.28;52.64;99634.41;5150736;27;20127;-41
2022/05/20 05:03:24;;;;;;;7.20;1.27;;;;;;;9.30;52.97;99624.84;5151465;27;20134;-41
2022/05/20 05:05:50;;;;;;;4.00;1.30;;;;;;;9.36;52.68;99613.44;5148576;27;20433;-42
2022/05/20 05:08:16;;;;;;;5.47;1.17;;;;;;;9.53;52.35;99631.06;5133387;27;20034;-40
2022/05/20 05:10:43;;;;;;;2.80;1.30;;;;;;;9.56;51.63;99636.16;5149792;27;20502;-41
2022/05/20 05:13:10;;;;;;;2.30;1.30;;;;;;;9.61;50.75;99640.31;5151426;27;20527;-41
2022/05/20 05:15:37;;;;;;;1.50;0.90;;;;;;;9.71;50.46;99639.13;5121833;27;20472;-42
2022/05/20 05:18:12;;;;;;;1.48;0.98;;;;;;;9.84;49.77;99646.53;5123482;27;20034;-40
2022/05/20 05:20:47;;;;;;;2.28;1.10;;;;;;;9.96;49.64;99646.97;5143239;27;20049;-42
2022/05/20 05:23:14;;;;;;;3.13;1.05;;;;;;;10.03;48.63;99648.50;5122199;27;20042;-41
2022/05/20 05:25:40;;;;;;;2.80;1.17;;;;;;;10.15;48.49;99642.88;5146173;27;20535;-42
2022/05/20 05:28:07;;;;;;;2.95;1.50;;;;;;;10.29;49.14;99641.59;5118358;27;20062;-41
2022/05/20 05:30:34;;;;;;;7.03;1.60;;;;;;;10.33;48.57;99644.03;5097971;27;20034;-40
2022/05/20 05:33:00;;;;;;;2.45;1.05;;;;;;;10.36;48.09;99650.91;5133687;27;20046;-40
2022/05/20 05:35:28;;;;;;;2.92;0.90;;;;;;;10.36;47.73;99649.16;5126140;27;20039;-41
2022/05/20 05:37:55;;;;;;;5.72;3.20;;;;;;;10.37;46.84;99652.56;5116770;27;20043;-41
2022/05/20 05:40:23;;;;;;;2.10;1.10;;;;;;;10.37;45.92;99650.81;5126375;27;20035;-41
2022/05/20 05:42:49;;;;;;;1.77;1.10;;;;;;;10.42;45.22;99658.47;5134890;27;20062;-41
2022/05/20 05:45:19;;;;;;;2.40;0.85;;;;;;;10.43;44.95;99649.78;5122002;27;20077;-42
2022/05/20 05:47:52;;;;;;;3.92;1.25;;;;;;;10.50;45.01;99646.06;5152578;27;20035;-40
2022/05/20 05:50:18;;;;;;;1.98;0.95;;;;;;;10.58;45.51;99651.84;5119104;27;20035;-41
2022/05/20 05:52:44;;;;;;;2.05;0.80;;;;;;;10.67;45.29;99645.50;5132265;27;20047;-40
2022/05/20 05:55:10;;;;;;;2.20;0.80;;;;;;;10.74;45.57;99646.94;5138971;27;20042;-40
2022/05/20 05:57:37;;;;;;;6.85;1.10;;;;;;;10.78;45.59;99657.19;5140102;27;20104;-40
2022/05/20 06:00:04;;;;;;;4.72;1.00;;;;;;;10.85;45.47;99650.03;5147949;27;20054;-41
2022/05/20 06:02:38;;;;;;;3.47;1.17;;;;;;;10.90;45.09;99655.91;5136801;27;20126;-40
2022/05/20 06:05:04;;;;;;;4.00;1.45;;;;;;;10.97;44.55;99660.00;5136193;27;20100;-42
2022/05/20 06:07:30;;;;;;;1.92;0.80;;;;;;;11.05;45.10;99657.94;5119333;27;20042;-40
2022/05/20 06:09:56;;;;;;;4.80;2.30;;;;;;;11.24;44.23;99661.59;5140101;27;20043;-43
2022/05/20 06:12:21;;;;;;;2.13;1.02;;;;;;;11.48;43.21;99667.59;5148409;27;20043;-40
2022/05/20 06:14:47;;;;;;;1.17;0.80;;;;;;;11.85;42.81;99677.47;5133193;27;20042;-40
2022/05/20 06:17:13;;;;;;;3.42;1.10;;;;;;;12.16;42.23;99677.94;5152795;27;20421;-41
2022/05/20 06:19:42;;;;;;;2.22;1.10;;;;;;;12.65;42.04;99679.34;5154501;27;20034;-46
2022/05/20 06:22:08;;;;;;;1.38;0.82;;;;;;;13.05;41.12;99670.63;5133751;27;20152;-42
2022/05/20 06:24:35;;;;;;;1.50;0.68;;;;;;;13.38;40.15;99675.28;5154635;27;20276;-41
2022/05/20 06:27:01;;;;;;;2.90;0.73;;;;;;;13.44;39.58;99662.78;5138890;27;20042;-40
2022/05/20 06:29:27;;;;;;;1.20;0.80;;;;;;;14.02;38.80;99669.63;5135868;27;20043;-42
2022/05/20 06:31:53;;;;;;;2.63;0.77;;;;;;;14.59;37.12;99658.91;5140883;27;20174;-41
2022/05/20 06:34:19;;;;;;;1.65;0.95;;;;;;;15.36;35.49;99653.94;5144913;27;20042;-41
2022/05/20 06:42:13;;;;;;;1.40;0.93;;;;;;;19.01;29.12;99667.19;5133014;27;20047;-40
2022/05/20 06:44:45;;;;;;;4.15;1.27;;;;;;;20.25;27.71;99670.53;5141819;27;20039;-41
2022/05/20 06:47:12;;;;;;;2.05;1.38;;;;;;;21.19;26.19;99667.81;5125181;27;20039;-42
2022/05/20 06:49:38;;;;;;;7.07;1.50;;;;;;;21.98;25.43;99677.38;5134957;27;20399;-41
2022/05/20 06:52:04;;;;;;;1.73;0.90;;;;;;;22.25;23.98;99677.72;5145962;27;20034;-39
2022/05/20 06:54:30;;;;;;;2.00;1.00;;;;;;;23.29;22.53;99671.59;5109627;27;20043;-41
2022/05/20 06:56:55;;;;;;;3.65;1.08;;;;;;;24.23;21.76;99666.69;5117484;27;20054;-41
2022/05/20 06:59:23;;;;;;;3.95;1.40;;;;;;;25.32;20.85;99671.53;5125660;27;20035;-43
2022/05/20 07:01:49;;;;;;;2.58;1.30;;;;;;;26.26;19.66;99675.63;5132207;27;20038;-51
2022/05/20 07:04:15;;;;;;;6.85;1.30;;;;;;;27.01;18.84;99676.06;5132560;27;20055;-53
2022/05/20 07:06:41;;;;;;;3.53;1.58;;;;;;;27.69;18.10;99676.91;5110702;27;20104;-45
2022/05/20 07:09:07;;;;;;;3.90;1.58;;;;;;;28.33;17.59;99662.84;5129257;27;20057;-44
2022/05/20 07:11:32;;;;;;;3.88;1.23;;;;;;;28.93;17.02;99674.06;5136311;27;20525;-44
2022/05/20 07:13:58;;;;;;;3.63;2.30;;;;;;;29.75;16.63;99674.63;5152071;27;20043;-46
2022/05/20 07:16:29;;;;;;;6.25;2.00;;;;;;;30.50;15.54;99683.75;5137438;27;20043;-51
2022/05/20 07:18:55;;;;;;;1.45;1.20;;;;;;;30.99;14.51;99675.22;5136112;27;20055;-42
2022/05/20 07:21:21;;;;;;;2.28;1.33;;;;;;;31.43;14.00;99673.41;5133758;27;20115;-44
2022/05/20 07:23:47;;;;;;;2.65;1.10;;;;;;;31.91;13.84;99681.88;5118522;27;20506;-41
2022/05/20 07:26:13;;;;;;;2.38;1.40;;;;;;;32.27;13.54;99680.03;5138512;27;20045;-41
2022/05/20 07:28:40;;;;;;;3.42;1.70;;;;;;;32.61;12.81;99673.91;5144900;27;20126;-41
2022/05/20 07:31:06;;;;;;;2.42;1.80;;;;;;;32.98;13.06;99678.16;5104150;27;20117;-42
2022/05/20 07:33:32;;;;;;;2.88;1.40;;;;;;;33.20;12.43;99689.72;5139205;27;20031;-43
2022/05/20 07:35:59;;;;;;;2.05;1.40;;;;;;;33.15;12.35;99687.59;5121955;27;20111;-42
2022/05/20 07:38:25;;;;;;;3.60;2.75;;;;;;;33.35;12.52;99676.94;5137896;27;20046;-44
2022/05/20 07:40:51;;;;;;;4.57;3.10;;;;;;;33.85;12.19;99691.13;5141700;27;20105;-40
2022/05/20 07:43:22;;;;;;;8.65;7.20;;;;;;;34.03;11.83;99689.50;5136204;27;20043;-44
2022/05/20 07:45:50;;;;;;;3.28;1.50;;;;;;;34.22;11.48;99696.03;5132584;27;20042;-43
2022/05/20 07:48:16;;;;;;;;;;;;;;;34.23;11.82;99700.34;5132184;27;20129;-46
2022/05/20 07:50:47;;;;;;;2.15;1.48;;;;;;;34.21;11.20;99701.63;5125796;27;19915;-40
2022/05/20 07:53:20;;;;;;;6.45;2.08;;;;;;;34.03;11.00;99694.06;5133049;27;20093;-39
2022/05/20 07:55:51;;;;;;;5.80;1.40;;;;;;;33.73;11.42;99696.25;5108701;27;20516;-41
2022/05/20 07:58:19;;;;;;;7.07;1.40;;;;;;;33.83;11.17;99709.34;5113847;27;20042;-46
2022/05/20 08:00:45;;;;;;;3.53;1.42;;;;;;;33.73;10.96;99692.72;5121409;27;20528;-40
2022/05/20 08:04:52;;;;;;;2.92;1.60;;;;;;;33.79;10.97;99691.91;5124130;27;20055;-41
2022/05/20 08:06:03;;;;;;;10.82;1.75;;;;;;;33.94;11.79;99685.31;5130690;27;20045;-42
2022/05/20 08:08:29;;;;;;;3.78;1.40;;;;;;;34.20;11.21;99695.38;5143196;27;20038;-45
2022/05/20 08:10:54;;;;;;;1.60;1.38;;;;;;;34.63;10.58;99689.63;5132460;27;20046;-41
2022/05/20 08:13:21;;;;;;;2.08;1.20;;;;;;;34.88;10.86;99684.44;5123269;27;20088;-42
2022/05/20 08:15:49;;;;;;;7.35;2.15;;;;;;;34.89;10.84;99676.13;5139841;27;20073;-42
2022/05/20 08:18:17;;;;;;;2.92;1.40;;;;;;;35.21;10.60;99686.09;5148791;27;20040;-41
2022/05/20 08:20:43;;;;;;;2.85;1.20;;;;;;;35.44;10.38;99687.44;5120982;27;20113;-41
2022/05/20 08:23:09;;;;;;;3.20;1.27;;;;;;;35.52;10.18;99679.13;5119530;27;20030;-43
2022/05/20 08:25:36;;;;;;;6.78;2.45;;;;;;;35.80;9.86;99686.94;5128170;27;20126;-42
2022/05/20 08:28:04;;;;;;;6.30;2.30;;;;;;;35.54;9.48;99672.44;5113136;27;20062;-42
2022/05/20 08:30:29;;;;;;;10.50;1.77;;;;;;;35.53;9.73;99672.66;5114421;27;20080;-42
2022/05/20 08:32:55;;;;;;;1.30;1.10;;;;;;;35.35;9.61;99667.94;5140223;27;20042;-42
2022/05/20 08:35:21;;;;;;;28.13;4.22;;;;;;;34.69;10.13;99678.84;5122430;27;20047;-41
2022/05/20 08:37:49;;;;;;;8.88;1.95;;;;;;;35.20;9.85;99676.31;5129437;27;20129;-42
2022/05/20 08:40:21;;;;;;;9.73;2.63;;;;;;;35.61;10.08;99670.53;5149742;27;20039;-41
2022/05/20 08:42:49;;;;;;;4.60;1.17;;;;;;;35.96;10.04;99670.19;5134041;27;20078;-41
2022/05/20 08:45:18;;;;;;;17.15;3.83;;;;;;;36.14;9.94;99672.16;5124259;28;20039;-43
2022/05/20 08:47:47;;;;;;;77.82;6.93;;;;;;;36.54;10.25;99673.56;5113232;28;20046;-43
2022/05/20 08:50:15;;;;;;;3.58;1.20;;;;;;;36.61;9.48;99662.66;5101732;28;20042;-42
2022/05/20 08:52:42;;;;;;;14.82;2.75;;;;;;;36.66;9.25;99662.88;5134776;27;20035;-43
2022/05/20 08:55:10;;;;;;;2.28;1.55;;;;;;;36.55;9.55;99658.13;5136372;27;20035;-42
2022/05/20 08:57:37;;;;;;;1.30;1.20;;;;;;;36.78;9.60;99663.81;5141535;27;20558;-42
2022/05/20 09:00:09;;;;;;;1.67;1.58;;;;;;;37.17;9.33;99663.41;5139803;27;20045;-43
2022/05/20 09:02:35;;;;;;;3.40;2.75;;;;;;;37.21;9.62;99661.09;5141512;27;20047;-41
2022/05/20 09:05:13;;;;;;;1.20;1.10;;;;;;;37.15;8.77;99656.59;5148996;27;20175;-43
2022/05/20 09:07:57;;;;;;;;;;;;;;;37.44;9.34;99657.69;5128793;27;20035;-42
2022/05/20 09:10:44;;;;;;;1.63;1.50;;;;;;;37.48;8.79;99658.88;5125422;27;20300;-42
2022/05/20 09:13:11;;;;;;;15.18;3.05;;;;;;;37.52;8.91;99651.97;5124542;27;20492;-42
2022/05/20 09:15:43;;;;;;;10.23;2.75;;;;;;;37.43;9.00;99628.91;5116769;27;20043;-42
2022/05/20 09:18:18;;;;;;;137.85;9.48;;;;;;;37.71;8.88;99662.59;5139700;27;20034;-41
2022/05/20 09:20:55;;;;;;;39.00;4.22;;;;;;;38.00;8.94;99660.16;5124987;27;20067;-42
2022/05/20 09:23:22;;;;;;;128.10;9.15;;;;;;;38.06;8.97;99653.78;5108677;27;20577;-41
2022/05/20 09:26:11;;;;;;;73.53;8.32;;;;;;;37.78;8.73;99646.22;5140861;27;20047;-41
2022/05/20 09:28:44;;;;;;;71.32;8.45;;;;;;;37.56;8.59;99634.22;5126321;27;20458;-44
2022/05/20 09:31:25;;;;;;;26.83;3.00;;;;;;;37.68;8.96;99633.22;5133549;27;20515;-41
2022/05/20 09:34:25;;;;;;;59.72;5.68;;;;;;;37.79;8.55;99642.44;5111086;27;20490;-42
2022/05/20 09:37:14;;;;;;;14.57;2.35;;;;;;;37.91;8.61;99634.34;5115225;27;20067;-45
2022/05/20 09:39:43;;;;;;;36.15;3.90;;;;;;;38.17;8.79;99636.69;5126994;27;20039;-43
2022/05/20 09:42:16;;;;;;;1.30;1.20;;;;;;;38.28;8.28;99635.06;5117706;27;20564;-44
2022/05/20 09:44:53;;;;;;;3.03;1.25;;;;;;;38.21;8.36;99634.34;5142858;27;20499;-41
2022/05/20 09:47:28;;;;;;;1.50;1.33;;;;;;;38.42;8.14;99631.09;5132051;27;20526;-41
2022/05/20 09:50:06;;;;;;;2.53;1.73;;;;;;;38.62;8.22;99636.22;5143947;27;20470;-45
2022/05/20 09:52:50;;;;;;;1.40;1.30;;;;;;;38.64;7.89;99632.16;5144321;27;20094;-45
2022/05/20 09:55:31;;;;;;;4.65;1.73;;;;;;;38.63;8.24;99633.22;5126598;27;20062;-44
2022/05/20 09:58:38;;;;;;;2.28;1.65;;;;;;;38.72;8.44;99626.41;5143180;27;20490;-41
2022/05/20 10:01:10;;;;;;;5.90;2.35;;;;;;;38.73;8.67;99630.78;5150984;27;20053;-43
2022/05/20 10:03:44;;;;;;;2.28;1.70;;;;;;;38.88;8.47;99635.72;5130141;27;20050;-45
2022/05/20 10:06:24;;;;;;;1.48;1.38;;;;;;;38.97;7.91;99629.72;5143422;27;20046;-44
2022/05/20 10:09:02;;;;;;;1.60;1.50;;;;;;;38.78;8.00;99630.91;5120210;27;20406;-45
2022/05/20 10:11:37;;;;;;;15.10;1.95;;;;;;;38.19;8.00;99614.72;5134060;27;20122;-46
2022/05/20 10:14:15;;;;;;;5.10;3.88;;;;;;;38.30;7.95;99622.09;5121166;27;20510;-44
2022/05/20 10:17:12;;;;;;;6.90;2.27;;;;;;;38.29;8.36;99621.25;5148831;27;20034;-43
2022/05/20 10:19:37;;;;;;;16.70;2.20;;;;;;;38.43;8.60;99610.97;5120805;27;20038;-41
2022/05/20 10:22:14;;;;;;;2.75;1.65;;;;;;;38.40;7.97;99606.84;5135431;27;20475;-48
2022/05/20 10:24:46;;;;;;;2.20;1.40;;;;;;;38.04;8.07;99612.47;5121892;27;20458;-42
2022/05/20 10:27:18;;;;;;;5.97;2.03;;;;;;;38.10;8.41;99604.22;5139810;27;20035;-42
2022/05/20 10:32:44;;;;;;;1.60;1.50;;;;;;;38.47;7.70;99595.91;5139386;27;20081;-47
2022/05/20 10:35:14;;;;;;;3.22;1.63;;;;;;;38.25;7.61;99598.34;5146508;27;20903;-45
2022/05/20 10:37:47;;;;;;;4.70;1.50;;;;;;;38.10;8.05;99593.38;5153567;27;20041;-41
2022/05/20 10:40:16;;;;;;;5.18;1.63;;;;;;;38.43;8.00;99594.69;5144732;27;20092;-41
2022/05/20 10:43:16;;;;;;;3.75;1.35;;;;;;;38.56;8.06;99591.78;5149926;27;20062;-41
2022/05/20 10:48:53;;;;;;;2.55;1.30;;;;;;;37.90;8.28;99590.06;5122883;27;20574;-41
2022/05/20 10:51:43;;;;;;;1.50;1.40;;;;;;;38.27;7.97;99589.94;5145807;27;20049;-43
2022/05/20 10:54:56;;;;;;;1.63;1.30;;;;;;;38.16;7.66;99580.72;5151611;27;20035;-42
2022/05/20 10:57:53;;;;;;;2.47;1.42;;;;;;;37.81;7.35;99574.34;5035074;28;20040;-42
2022/05/20 11:00:25;;;;;;;6.57;1.65;;;;;;;37.98;8.23;99583.50;5033333;28;20045;-43
2022/05/20 11:03:03;;;;;;;4.88;1.77;;;;;;;38.27;8.28;99576.34;5091939;27;20135;-42
2022/05/20 11:05:40;;;;;;;1.40;1.30;;;;;;;38.42;7.82;99568.59;5134560;27;20464;-43
2022/05/20 11:08:42;;;;;;;;;;;;;;;38.22;7.99;99568.06;5133707;27;20066;-43
2022/05/20 11:11:26;;;;;;;4.97;1.80;;;;;;;37.82;8.37;99559.72;5072039;28;20018;-42
2022/05/20 11:14:27;;;;;;;2.45;1.95;;;;;;;37.95;8.84;99564.94;5135672;27;20522;-42
2022/05/20 11:17:01;;;;;;;1.85;1.30;;;;;;;38.10;8.13;99560.78;5121135;27;20076;-41
2022/05/20 11:20:03;;;;;;;3.65;1.50;;;;;;;38.16;8.30;99554.38;5135243;27;20401;-43
2022/05/20 11:22:48;;;;;;;3.20;1.98;;;;;;;38.27;8.36;99550.03;5089777;27;20145;-42
2022/05/20 11:25:45;;;;;;;4.30;2.35;;;;;;;38.12;8.51;99553.19;5136312;27;20035;-42
2022/05/20 11:28:20;;;;;;;;;;;;;;;38.13;8.69;99545.88;5152946;27;20402;-44
2022/05/20 11:31:10;;;;;;;3.17;1.58;;;;;;;38.30;8.49;99557.72;5125667;27;19914;-42
2022/05/20 11:34:16;;;;;;;1.58;1.48;;;;;;;38.68;7.96;99553.72;5121586;27;20043;-42
2022/05/20 11:37:07;;;;;;;2.43;1.30;;;;;;;38.51;8.25;99551.72;5024052;28;20037;-42
2022/05/20 11:40:30;;;;;;;4.03;1.40;;;;;;;38.39;8.03;99541.88;5114160;27;20273;-42
2022/05/20 11:43:29;;;;;;;64.55;4.13;;;;;;;38.40;8.33;99540.81;5073493;28;20137;-42
2022/05/20 11:46:04;;;;;;;5.28;1.92;;;;;;;38.37;8.24;99533.94;5074694;28;20058;-41
2022/05/20 11:48:48;;;;;;;46.78;5.43;;;;;;;37.99;7.77;99533.56;5144454;27;20211;-41
2022/05/20 11:51:24;;;;;;;8.48;4.35;;;;;;;37.87;8.30;99530.00;5140768;27;20055;-41
2022/05/20 11:54:39;;;;;;;16.60;3.53;;;;;;;37.96;8.61;99529.41;5127491;27;20039;-41
2022/05/20 11:57:08;;;;;;;5.53;1.75;;;;;;;37.94;8.07;99526.13;5122931;27;20095;-43
2022/05/20 11:59:39;;;;;;;2.70;2.03;;;;;;;37.75;8.35;99528.06;5113247;27;21005;-43
2022/05/20 12:02:10;;;;;;;5.57;2.65;;;;;;;37.61;8.59;99525.81;5139749;27;20054;-43
2022/05/20 12:04:39;;;;;;;4.55;1.88;;;;;;;36.95;8.28;99502.25;5129240;27;20429;-42
2022/05/20 12:07:11;;;;;;;5.35;1.55;;;;;;;37.02;8.49;99504.84;5112472;27;20039;-42
2022/05/20 12:09:43;;;;;;;4.38;1.40;;;;;;;36.26;8.42;99503.41;5116929;27;20063;-43
2022/05/20 12:12:09;;;;;;;1.50;1.40;;;;;;;35.79;8.75;99495.88;5138381;27;20555;-42
2022/05/20 12:14:53;;;;;;;5.45;1.48;;;;;;;36.05;9.22;99492.94;5134869;27;20142;-42
2022/05/20 12:17:36;;;;;;;2.28;1.40;;;;;;;36.23;8.95;99493.00;5132065;27;20050;-42
2022/05/20 12:26:16;;;;;;;9.00;2.30;;;;;;;36.56;9.02;99494.53;5148573;27;20039;-41
2022/05/20 12:28:42;;;;;;;6.68;1.83;;;;;;;36.43;8.71;99471.16;5132935;27;20038;-42
2022/05/20 12:31:28;;;;;;;1.70;1.40;;;;;;;36.34;8.81;99476.00;5126846;27;20513;-42
2022/05/20 12:34:10;;;;;;;51.08;3.05;;;;;;;36.01;8.86;99480.91;5152519;27;20046;-42